sensor_id;sensor_type;location;lat;lon;timestamp;pressure;altitude;pressure_sealevel;temperature;humidity
4617;BME280;2321;42.704;23.384;2024-03-23T00:54:19;95524.81;;;5.49;80.96
4617;BME280;2321;42.704;23.384;2024-03-23T00:56:45;95521.66;;;5.45;81.19
4617;BME280;2321;42.704;23.384;2024-03-23T00:59:12;95519.03;;;5.45;81.49
4617;BME280;2321;42.704;23.384;2024-03-23T01:01:39;95522.50;;;5.45;82.19
4617;BME280;2321;42.704;23.384;2024-03-23T01:04:06;95510.38;;;5.34;82.99
4617;BME280;2321;42.704;23.384;2024-03-23T01:06:32;95520.16;;;5.42;83.73
4617;BME280;2321;42.704;23.384;2024-03-23T01:08:59;95513.53;;;5.38;83.54
4617;BME280;2321;42.704;23.384;2024-03-23T01:11:27;95511.38;;;5.33;83.81
4617;BME280;2321;42.704;23.384;2024-03-23T01:13:54;95510.06;;;5.38;83.91
4617;BME280;2321;42.704;23.384;2024-03-23T01:16:21;95508.56;;;5.35;83.71
4617;BME280;2321;42.704;23.384;2024-03-23T01:18:48;95509.41;;;5.36;84.03
4617;BME280;2321;42.704;23.384;2024-03-23T01:21:14;95509.50;;;5.26;83.50
4617;BME280;2321;42.704;23.384;2024-03-23T01:23:42;95508.97;;;5.22;84.00
4617;BME280;2321;42.704;23.384;2024-03-23T01:26:08;95523.47;;;5.18;84.13
4617;BME280;2321;42.704;23.384;2024-03-23T01:28:36;95512.63;;;5.21;84.11
4617;BME280;2321;42.704;23.384;2024-03-23T01:31:03;95511.78;;;5.20;83.90
4617;BME280;2321;42.704;23.384;2024-03-23T01:33:30;95513.59;;;5.20;84.26
4617;BME280;2321;42.704;23.384;2024-03-23T01:35:56;95505.66;;;5.20;84.46
4617;BME280;2321;42.704;23.384;2024-03-23T01:38:23;95509.09;;;5.12;84.63
4617;BME280;2321;42.704;23.384;2024-03-23T01:40:49;95504.94;;;5.09;85.27
4617;BME280;2321;42.704;23.384;2024-03-23T01:43:16;95504.94;;;5.09;85.42
4617;BME280;2321;42.704;23.384;2024-03-23T01:45:43;95507.88;;;5.06;85.57
4617;BME280;2321;42.704;23.384;2024-03-23T01:48:11;95512.50;;;5.04;85.73
4617;BME280;2321;42.704;23.384;2024-03-23T01:50:38;95505.94;;;5.08;86.37
4617;BME280;2321;42.704;23.384;2024-03-23T01:53:05;95510.63;;;4.96;88.91
4617;BME280;2321;42.704;23.384;2024-03-23T01:55:32;95503.47;;;4.88;90.46
4617;BME280;2321;42.704;23.384;2024-03-23T01:57:59;95503.47;;;4.88;91.28
4617;BME280;2321;42.704;23.384;2024-03-23T02:00:25;95509.97;;;4.76;92.06
4617;BME280;2321;42.704;23.384;2024-03-23T02:02:55;95512.19;;;4.62;93.42
4617;BME280;2321;42.704;23.384;2024-03-23T02:05:22;95508.25;;;4.48;94.66
4617;BME280;2321;42.704;23.384;2024-03-23T02:07:50;95509.84;;;4.41;95.83
4617;BME280;2321;42.704;23.384;2024-03-23T02:10:17;95509.41;;;4.45;97.02
4617;BME280;2321;42.704;23.384;2024-03-23T02:12:44;95510.41;;;4.44;97.21
4617;BME280;2321;42.704;23.384;2024-03-23T02:15:10;95503.97;;;4.47;97.17
4617;BME280;2321;42.704;23.384;2024-03-23T02:17:37;95510.28;;;4.54;96.99
4617;BME280;2321;42.704;23.384;2024-03-23T02:20:05;95511.00;;;4.56;96.53
4617;BME280;2321;42.704;23.384;2024-03-23T02:22:36;95522.69;;;4.54;96.21
4617;BME280;2321;42.704;23.384;2024-03-23T02:25:05;95524.47;;;4.53;96.44
4617;BME280;2321;42.704;23.384;2024-03-23T02:27:32;95525.75;;;4.49;96.55
4617;BME280;2321;42.704;23.384;2024-03-23T02:29:59;95519.09;;;4.45;97.14
4617;BME280;2321;42.704;23.384;2024-03-23T02:32:26;95519.69;;;4.39;97.12
4617;BME280;2321;42.704;23.384;2024-03-23T02:34:52;95522.97;;;4.32;97.93
4617;BME280;2321;42.704;23.384;2024-03-23T02:37:19;95523.09;;;4.31;98.50
4617;BME280;2321;42.704;23.384;2024-03-23T02:39:45;95525.06;;;4.29;98.43
4617;BME280;2321;42.704;23.384;2024-03-23T02:42:13;95514.66;;;4.27;99.15
4617;BME280;2321;42.704;23.384;2024-03-23T02:44:41;95520.75;;;4.28;98.44
4617;BME280;2321;42.704;23.384;2024-03-23T02:47:08;95517.59;;;4.24;98.15
4617;BME280;2321;42.704;23.384;2024-03-23T02:49:34;95517.06;;;4.20;97.89
4617;BME280;2321;42.704;23.384;2024-03-23T02:52:01;95516.16;;;4.11;98.20
4617;BME280;2321;42.704;23.384;2024-03-23T02:54:27;95514.25;;;4.03;99.18
4617;BME280;2321;42.704;23.384;2024-03-23T02:56:54;95513.44;;;4.03;99.40
4617;BME280;2321;42.704;23.384;2024-03-23T02:59:22;95515.28;;;3.92;100.00
4617;BME280;2321;42.704;23.384;2024-03-23T03:01:49;95509.94;;;3.84;100.00
4617;BME280;2321;42.704;23.384;2024-03-23T03:04:15;95517.41;;;3.89;100.00
4617;BME280;2321;42.704;23.384;2024-03-23T03:06:46;95517.25;;;3.90;100.00
4617;BME280;2321;42.704;23.384;2024-03-23T03:09:12;95520.03;;;3.89;100.00
4617;BME280;2321;42.704;23.384;2024-03-23T03:11:39;95502.84;;;3.85;100.00
4617;BME280;2321;42.704;23.384;2024-03-23T03:14:05;95512.56;;;3.84;100.00
4617;BME280;2321;42.704;23.384;2024-03-23T03:16:34;95512.28;;;3.87;100.00
4617;BME280;2321;42.704;23.384;2024-03-23T03:19:01;95516.19;;;3.83;100.00
4617;BME280;2321;42.704;23.384;2024-03-23T03:21:28;95517.88;;;3.74;100.00
4617;BME280;2321;42.704;23.384;2024-03-23T03:23:54;95506.69;;;3.62;100.00
4617;BME280;2321;42.704;23.384;2024-03-23T03:26:22;95517.66;;;3.67;100.00
4617;BME280;2321;42.704;23.384;2024-03-23T03:28:48;95516.22;;;3.73;100.00
4617;BME280;2321;42.704;23.384;2024-03-23T03:31:15;95516.53;;;3.70;100.00
4617;BME280;2321;42.704;23.384;2024-03-23T03:33:43;95520.09;;;3.79;100.00
4617;BME280;2321;42.704;23.384;2024-03-23T03:36:10;95519.13;;;3.80;100.00
4617;BME280;2321;42.704;23.384;2024-03-23T03:38:36;95522.44;;;3.82;100.00
4617;BME280;2321;42.704;23.384;2024-03-23T03:41:04;95514.81;;;3.79;100.00
4617;BME280;2321;42.704;23.384;2024-03-23T03:43:31;95517.56;;;3.77;100.00
4617;BME280;2321;42.704;23.384;2024-03-23T03:45:59;95517.75;;;3.76;100.00
4617;BME280;2321;42.704;23.384;2024-03-23T03:48:26;95518.41;;;3.78;100.00
4617;BME280;2321;42.704;23.384;2024-03-23T03:50:54;95517.56;;;3.77;100.00
4617;BME280;2321;42.704;23.384;2024-03-23T03:53:20;95520.91;;;3.79;100.00
4617;BME280;2321;42.704;23.384;2024-03-23T03:55:47;95518.13;;;3.81;100.00
4617;BME280;2321;42.704;23.384;2024-03-23T03:58:13;95518.00;;;3.83;99.14
4617;BME280;2321;42.704;23.384;2024-03-23T04:00:41;95521.97;;;3.87;98.84
4617;BME280;2321;42.704;23.384;2024-03-23T04:03:07;95518.13;;;3.81;98.62
4617;BME280;2321;42.704;23.384;2024-03-23T04:05:34;95517.81;;;3.84;99.18
4617;BME280;2321;42.704;23.384;2024-03-23T04:08:01;95516.03;;;3.85;98.46
4617;BME280;2321;42.704;23.384;2024-03-23T04:10:29;95519.63;;;3.84;98.44
4617;BME280;2321;42.704;23.384;2024-03-23T04:12:55;95514.66;;;3.80;98.48
4617;BME280;2321;42.704;23.384;2024-03-23T04:15:22;95527.31;;;3.77;98.82
4617;BME280;2321;42.704;23.384;2024-03-23T04:17:48;95530.75;;;3.77;98.68
4617;BME280;2321;42.704;23.384;2024-03-23T04:20:16;95534.50;;;3.75;98.83
4617;BME280;2321;42.704;23.384;2024-03-23T04:22:42;95531.03;;;3.74;98.81
4617;BME280;2321;42.704;23.384;2024-03-23T04:25:11;95525.38;;;3.69;99.41
4617;BME280;2321;42.704;23.384;2024-03-23T04:27:37;95545.19;;;3.73;99.38
4617;BME280;2321;42.704;23.384;2024-03-23T04:30:05;95524.69;;;3.77;98.97
4617;BME280;2321;42.704;23.384;2024-03-23T04:32:35;95519.13;;;3.80;99.04
4617;BME280;2321;42.704;23.384;2024-03-23T04:35:03;95529.66;;;3.80;98.91
4617;BME280;2321;42.704;23.384;2024-03-23T04:37:31;95540.88;;;3.82;98.41
4617;BME280;2321;42.704;23.384;2024-03-23T04:39:59;95536.13;;;3.86;98.65
4617;BME280;2321;42.704;23.384;2024-03-23T04:42:28;95533.50;;;3.86;98.61
4617;BME280;2321;42.704;23.384;2024-03-23T04:44:56;95537.78;;;3.87;98.49
4617;BME280;2321;42.704;23.384;2024-03-23T04:47:23;95537.94;;;3.85;99.06
4617;BME280;2321;42.704;23.384;2024-03-23T04:49:50;95542.91;;;3.88;98.95
4617;BME280;2321;42.704;23.384;2024-03-23T04:52:16;95538.91;;;3.84;99.23
4617;BME280;2321;42.704;23.384;2024-03-23T04:54:43;95548.19;;;3.88;99.31
4617;BME280;2321;42.704;23.384;2024-03-23T04:57:10;95546.91;;;3.92;99.58
4617;BME280;2321;42.704;23.384;2024-03-23T04:59:39;95549.41;;;3.94;99.78
4617;BME280;2321;42.704;23.384;2024-03-23T05:02:05;95554.38;;;3.97;99.45
4617;BME280;2321;42.704;23.384;2024-03-23T05:04:32;95548.34;;;4.05;99.57
4617;BME280;2321;42.704;23.384;2024-03-23T05:06:58;95543.78;;;4.07;99.76
4617;BME280;2321;42.704;23.384;2024-03-23T05:09:25;95548.47;;;4.13;99.47
4617;BME280;2321;42.704;23.384;2024-03-23T05:11:55;95543.72;;;4.17;99.18
4617;BME280;2321;42.704;23.384;2024-03-23T05:14:23;95547.72;;;4.21;99.16
4617;BME280;2321;42.704;23.384;2024-03-23T05:16:50;95536.22;;;4.22;99.15
4617;BME280;2321;42.704;23.384;2024-03-23T05:19:17;95546.16;;;4.29;98.82
4617;BME280;2321;42.704;23.384;2024-03-23T05:21:43;95543.06;;;4.33;98.31
4617;BME280;2321;42.704;23.384;2024-03-23T05:24:11;95547.59;;;4.41;97.21
4617;BME280;2321;42.704;23.384;2024-03-23T05:26:37;95538.56;;;4.44;97.13
4617;BME280;2321;42.704;23.384;2024-03-23T05:29:05;95526.03;;;4.46;96.77
4617;BME280;2321;42.704;23.384;2024-03-23T05:31:36;95540.13;;;4.55;96.22
4617;BME280;2321;42.704;23.384;2024-03-23T05:34:04;95542.34;;;4.60;95.63
4617;BME280;2321;42.704;23.384;2024-03-23T05:36:30;95546.16;;;4.65;95.65
4617;BME280;2321;42.704;23.384;2024-03-23T05:38:58;95547.50;;;4.69;95.08
4617;BME280;2321;42.704;23.384;2024-03-23T05:41:24;95541.50;;;4.77;94.12
4617;BME280;2321;42.704;23.384;2024-03-23T05:43:51;95544.34;;;4.84;93.52
4617;BME280;2321;42.704;23.384;2024-03-23T05:46:17;95532.66;;;4.87;92.46
4617;BME280;2321;42.704;23.384;2024-03-23T05:48:44;95544.94;;;4.96;92.96
4617;BME280;2321;42.704;23.384;2024-03-23T05:51:12;95542.00;;;4.99;92.25
4617;BME280;2321;42.704;23.384;2024-03-23T05:53:39;95531.00;;;4.86;91.07
4617;BME280;2321;42.704;23.384;2024-03-23T05:56:05;95534.72;;;4.75;91.99
4617;BME280;2321;42.704;23.384;2024-03-23T05:58:32;95537.19;;;4.76;93.91
4617;BME280;2321;42.704;23.384;2024-03-23T06:00:59;95541.25;;;4.89;95.52
4617;BME280;2321;42.704;23.384;2024-03-23T06:03:27;95533.91;;;5.01;95.50
4617;BME280;2321;42.704;23.384;2024-03-23T06:05:54;95540.47;;;5.15;95.24
4617;BME280;2321;42.704;23.384;2024-03-23T06:08:22;95543.19;;;5.32;94.19
4617;BME280;2321;42.704;23.384;2024-03-23T06:10:49;95531.53;;;5.43;91.94
4617;BME280;2321;42.704;23.384;2024-03-23T06:13:17;95537.72;;;5.52;91.65
4617;BME280;2321;42.704;23.384;2024-03-23T06:15:43;95531.16;;;5.64;91.14
4617;BME280;2321;42.704;23.384;2024-03-23T06:18:12;95535.50;;;5.74;88.13
4617;BME280;2321;42.704;23.384;2024-03-23T06:20:38;95529.94;;;5.85;90.23
4617;BME280;2321;42.704;23.384;2024-03-23T06:23:05;95527.97;;;5.96;89.49
4617;BME280;2321;42.704;23.384;2024-03-23T06:25:33;95529.66;;;6.05;88.30
4617;BME280;2321;42.704;23.384;2024-03-23T06:28:00;95525.44;;;6.13;89.29
4617;BME280;2321;42.704;23.384;2024-03-23T06:30:28;95539.66;;;6.20;86.88
4617;BME280;2321;42.704;23.384;2024-03-23T06:32:55;95527.78;;;6.24;86.00
4617;BME280;2321;42.704;23.384;2024-03-23T06:35:21;95498.69;;;6.16;87.41
4617;BME280;2321;42.704;23.384;2024-03-23T06:37:48;95535.59;;;6.42;87.07
4617;BME280;2321;42.704;23.384;2024-03-23T06:40:14;95533.44;;;6.54;86.80
4617;BME280;2321;42.704;23.384;2024-03-23T06:42:43;95534.59;;;6.69;86.33
4617;BME280;2321;42.704;23.384;2024-03-23T06:45:09;95526.69;;;6.77;84.43
4617;BME280;2321;42.704;23.384;2024-03-23T06:47:36;95534.94;;;6.91;85.93
4617;BME280;2321;42.704;23.384;2024-03-23T06:50:03;95528.19;;;7.05;82.50
4617;BME280;2321;42.704;23.384;2024-03-23T06:52:30;95527.97;;;7.15;81.19
4617;BME280;2321;42.704;23.384;2024-03-23T06:54:57;95526.16;;;7.24;83.13
4617;BME280;2321;42.704;23.384;2024-03-23T06:57:24;95518.53;;;7.37;81.70
4617;BME280;2321;42.704;23.384;2024-03-23T06:59:52;95524.28;;;7.49;80.09
4617;BME280;2321;42.704;23.384;2024-03-23T07:02:19;95522.94;;;7.62;79.43
4617;BME280;2321;42.704;23.384;2024-03-23T07:04:45;95522.06;;;7.70;78.14
4617;BME280;2321;42.704;23.384;2024-03-23T07:07:12;95519.56;;;7.77;77.50
4617;BME280;2321;42.704;23.384;2024-03-23T07:09:38;95514.06;;;7.87;79.51
4617;BME280;2321;42.704;23.384;2024-03-23T07:12:05;95514.16;;;8.02;78.89
4617;BME280;2321;42.704;23.384;2024-03-23T07:14:31;95516.63;;;8.12;77.51
4617;BME280;2321;42.704;23.384;2024-03-23T07:17:00;95511.25;;;8.20;76.07
4617;BME280;2321;42.704;23.384;2024-03-23T07:19:26;95510.84;;;8.32;74.36
4617;BME280;2321;42.704;23.384;2024-03-23T07:21:54;95510.94;;;8.47;74.79
4617;BME280;2321;42.704;23.384;2024-03-23T07:24:20;95504.75;;;8.55;71.17
4617;BME280;2321;42.704;23.384;2024-03-23T07:26:47;95498.78;;;8.53;70.46
4617;BME280;2321;42.704;23.384;2024-03-23T07:29:13;95507.22;;;8.65;72.29
4617;BME280;2321;42.704;23.384;2024-03-23T07:31:40;95493.56;;;8.68;70.50
4617;BME280;2321;42.704;23.384;2024-03-23T07:34:08;95500.47;;;8.77;70.26
4617;BME280;2321;42.704;23.384;2024-03-23T07:36:35;95491.78;;;8.83;66.62
4617;BME280;2321;42.704;23.384;2024-03-23T07:39:01;95490.88;;;8.76;66.76
4617;BME280;2321;42.704;23.384;2024-03-23T07:41:29;95493.31;;;8.78;67.80
4617;BME280;2321;42.704;23.384;2024-03-23T07:43:56;95493.72;;;8.90;68.05
4617;BME280;2321;42.704;23.384;2024-03-23T07:46:23;95489.25;;;8.90;64.18
4617;BME280;2321;42.704;23.384;2024-03-23T07:48:50;95494.03;;;8.95;62.41
4617;BME280;2321;42.704;23.384;2024-03-23T07:51:20;95487.69;;;8.96;63.06
4617;BME280;2321;42.704;23.384;2024-03-23T07:53:47;95487.44;;;9.06;64.20
4617;BME280;2321;42.704;23.384;2024-03-23T07:56:15;95480.97;;;9.24;64.17
4617;BME280;2321;42.704;23.384;2024-03-23T07:58:41;95478.06;;;9.34;61.33
4617;BME280;2321;42.704;23.384;2024-03-23T08:01:10;95486.50;;;9.37;59.81
4617;BME280;2321;42.704;23.384;2024-03-23T08:03:37;95484.47;;;9.40;59.21
4617;BME280;2321;42.704;23.384;2024-03-23T08:06:08;95476.31;;;9.41;59.75
4617;BME280;2321;42.704;23.384;2024-03-23T08:08:36;95490.88;;;9.61;60.16
4617;BME280;2321;42.704;23.384;2024-03-23T08:11:03;95475.84;;;9.68;61.30
4617;BME280;2321;42.704;23.384;2024-03-23T08:13:30;95486.66;;;9.81;60.01
4617;BME280;2321;42.704;23.384;2024-03-23T08:15:57;95482.44;;;9.87;59.14
4617;BME280;2321;42.704;23.384;2024-03-23T08:18:23;95477.38;;;9.93;59.03
4617;BME280;2321;42.704;23.384;2024-03-23T08:20:57;95479.69;;;9.96;58.30
4617;BME280;2321;42.704;23.384;2024-03-23T08:23:24;95477.84;;;9.96;57.77
4617;BME280;2321;42.704;23.384;2024-03-23T08:25:54;95475.81;;;9.98;56.31
4617;BME280;2321;42.704;23.384;2024-03-23T08:28:23;95464.91;;;9.93;56.36
4617;BME280;2321;42.704;23.384;2024-03-23T08:30:50;95472.06;;;9.93;56.04
4617;BME280;2321;42.704;23.384;2024-03-23T08:33:16;95466.00;;;9.99;55.56
4617;BME280;2321;42.704;23.384;2024-03-23T08:35:53;95470.22;;;10.08;55.61
4617;BME280;2321;42.704;23.384;2024-03-23T08:38:19;95453.75;;;10.20;56.06
4617;BME280;2321;42.704;23.384;2024-03-23T08:40:46;95458.63;;;10.38;56.20
4617;BME280;2321;42.704;23.384;2024-03-23T08:43:13;95453.06;;;10.55;55.32
4617;BME280;2321;42.704;23.384;2024-03-23T08:45:40;95446.22;;;10.67;54.83
4617;BME280;2321;42.704;23.384;2024-03-23T08:48:07;95448.19;;;10.81;54.31
4617;BME280;2321;42.704;23.384;2024-03-23T08:50:34;95443.53;;;10.89;54.62
4617;BME280;2321;42.704;23.384;2024-03-23T08:53:00;95446.88;;;10.98;55.12
4617;BME280;2321;42.704;23.384;2024-03-23T08:55:28;95437.34;;;11.11;55.58
4617;BME280;2321;42.704;23.384;2024-03-23T08:57:54;95427.84;;;11.30;53.97
4617;BME280;2321;42.704;23.384;2024-03-23T09:00:23;95425.84;;;11.39;53.16
4617;BME280;2321;42.704;23.384;2024-03-23T09:02:49;95425.66;;;11.48;53.42
4617;BME280;2321;42.704;23.384;2024-03-23T09:05:17;95423.88;;;11.55;52.25
4617;BME280;2321;42.704;23.384;2024-03-23T09:07:43;95416.53;;;11.64;52.02
4617;BME280;2321;42.704;23.384;2024-03-23T09:10:10;95414.28;;;11.68;51.99
4617;BME280;2321;42.704;23.384;2024-03-23T09:12:36;95408.81;;;11.83;51.47
4617;BME280;2321;42.704;23.384;2024-03-23T09:15:03;95403.50;;;11.96;51.38
4617;BME280;2321;42.704;23.384;2024-03-23T09:17:31;95397.59;;;12.08;52.59
4617;BME280;2321;42.704;23.384;2024-03-23T09:19:58;95396.66;;;12.29;52.16
4617;BME280;2321;42.704;23.384;2024-03-23T09:22:24;95390.28;;;12.51;52.46
4617;BME280;2321;42.704;23.384;2024-03-23T09:24:51;95386.19;;;12.69;50.29
4617;BME280;2321;42.704;23.384;2024-03-23T09:27:17;95387.63;;;12.78;50.07
4617;BME280;2321;42.704;23.384;2024-03-23T09:29:44;95381.22;;;12.86;49.33
4617;BME280;2321;42.704;23.384;2024-03-23T09:32:10;95382.06;;;12.87;49.78
4617;BME280;2321;42.704;23.384;2024-03-23T09:34:39;95372.38;;;13.06;49.95
4617;BME280;2321;42.704;23.384;2024-03-23T09:37:05;95367.38;;;13.30;48.46
4617;BME280;2321;42.704;23.384;2024-03-23T09:39:32;95365.91;;;13.41;48.12
4617;BME280;2321;42.704;23.384;2024-03-23T09:41:58;95368.97;;;13.51;46.75
4617;BME280;2321;42.704;23.384;2024-03-23T09:44:25;95357.03;;;13.47;46.89
4617;BME280;2321;42.704;23.384;2024-03-23T09:46:55;95358.72;;;13.42;46.28
4617;BME280;2321;42.704;23.384;2024-03-23T09:49:22;95350.44;;;13.50;47.69
4617;BME280;2321;42.704;23.384;2024-03-23T09:51:50;95342.81;;;13.67;45.77
4617;BME280;2321;42.704;23.384;2024-03-23T09:54:17;95338.41;;;13.80;47.72
4617;BME280;2321;42.704;23.384;2024-03-23T09:56:43;95332.94;;;14.00;44.04
4617;BME280;2321;42.704;23.384;2024-03-23T09:59:10;95339.72;;;14.03;46.06
4617;BME280;2321;42.704;23.384;2024-03-23T10:01:37;95326.47;;;14.15;44.50
4617;BME280;2321;42.704;23.384;2024-03-23T10:04:04;95324.16;;;14.19;44.11
4617;BME280;2321;42.704;23.384;2024-03-23T10:06:31;95314.59;;;14.30;44.68
4617;BME280;2321;42.704;23.384;2024-03-23T10:08:59;95314.56;;;14.36;43.17
4617;BME280;2321;42.704;23.384;2024-03-23T10:11:25;95306.31;;;14.38;43.12
4617;BME280;2321;42.704;23.384;2024-03-23T10:13:53;95306.63;;;14.48;44.68
4617;BME280;2321;42.704;23.384;2024-03-23T10:16:23;95309.84;;;14.57;43.76
4617;BME280;2321;42.704;23.384;2024-03-23T10:18:52;95302.28;;;14.73;41.96
4617;BME280;2321;42.704;23.384;2024-03-23T10:21:19;95304.69;;;14.81;40.91
4617;BME280;2321;42.704;23.384;2024-03-23T10:23:45;95292.25;;;14.87;42.13
4617;BME280;2321;42.704;23.384;2024-03-23T10:26:18;95292.16;;;15.01;42.17
4617;BME280;2321;42.704;23.384;2024-03-23T10:28:54;95286.94;;;15.06;42.97
4617;BME280;2321;42.704;23.384;2024-03-23T10:31:22;95287.88;;;15.12;41.86
4617;BME280;2321;42.704;23.384;2024-03-23T10:33:49;95272.78;;;15.18;43.26
4617;BME280;2321;42.704;23.384;2024-03-23T10:36:17;95273.19;;;15.33;43.42
4617;BME280;2321;42.704;23.384;2024-03-23T10:38:46;95267.69;;;15.47;43.18
4617;BME280;2321;42.704;23.384;2024-03-23T10:41:15;95265.28;;;15.57;42.60
4617;BME280;2321;42.704;23.384;2024-03-23T10:43:43;95256.91;;;15.66;41.28
4617;BME280;2321;42.704;23.384;2024-03-23T10:46:10;95248.16;;;15.71;39.40
4617;BME280;2321;42.704;23.384;2024-03-23T10:48:36;95246.66;;;15.75;40.63
4617;BME280;2321;42.704;23.384;2024-03-23T10:51:05;95233.28;;;15.87;40.88
4617;BME280;2321;42.704;23.384;2024-03-23T10:53:34;95222.66;;;16.04;41.05
4617;BME280;2321;42.704;23.384;2024-03-23T10:56:02;95227.97;;;16.23;39.80
4617;BME280;2321;42.704;23.384;2024-03-23T10:58:35;95219.34;;;16.33;39.95
4617;BME280;2321;42.704;23.384;2024-03-23T11:01:04;95212.31;;;16.44;40.32
4617;BME280;2321;42.704;23.384;2024-03-23T11:03:34;95205.44;;;16.48;38.83
4617;BME280;2321;42.704;23.384;2024-03-23T11:06:02;95202.53;;;16.62;38.71
4617;BME280;2321;42.704;23.384;2024-03-23T11:08:33;95199.84;;;16.62;38.66
4617;BME280;2321;42.704;23.384;2024-03-23T11:11:20;95183.00;;;16.54;38.65
4617;BME280;2321;42.704;23.384;2024-03-23T11:13:49;95187.88;;;16.70;38.77
4617;BME280;2321;42.704;23.384;2024-03-23T11:16:22;95180.38;;;16.84;39.40
4617;BME280;2321;42.704;23.384;2024-03-23T11:18:53;95178.72;;;16.95;37.51
4617;BME280;2321;42.704;23.384;2024-03-23T11:21:51;95172.25;;;17.08;38.43
4617;BME280;2321;42.704;23.384;2024-03-23T11:24:18;95161.94;;;17.17;37.99
4617;BME280;2321;42.704;23.384;2024-03-23T11:26:46;95151.72;;;17.31;38.03
4617;BME280;2321;42.704;23.384;2024-03-23T11:29:14;95148.25;;;17.48;37.57
4617;BME280;2321;42.704;23.384;2024-03-23T11:31:46;95151.19;;;17.63;36.32
4617;BME280;2321;42.704;23.384;2024-03-23T11:34:12;95151.78;;;17.66;35.95
4617;BME280;2321;42.704;23.384;2024-03-23T11:36:39;95143.28;;;17.57;35.43
4617;BME280;2321;42.704;23.384;2024-03-23T11:39:12;95135.94;;;17.52;35.65
4617;BME280;2321;42.704;23.384;2024-03-23T11:41:47;95129.06;;;17.44;35.76
4617;BME280;2321;42.704;23.384;2024-03-23T11:44:20;95123.53;;;17.51;36.27
4617;BME280;2321;42.704;23.384;2024-03-23T11:46:48;95122.25;;;17.71;35.37
4617;BME280;2321;42.704;23.384;2024-03-23T11:49:22;95117.25;;;17.80;34.49
4617;BME280;2321;42.704;23.384;2024-03-23T11:51:49;95095.31;;;17.71;34.75
4617;BME280;2321;42.704;23.384;2024-03-23T11:54:16;95095.56;;;17.86;34.83
4617;BME280;2321;42.704;23.384;2024-03-23T11:56:54;95101.00;;;17.92;34.20
4617;BME280;2321;42.704;23.384;2024-03-23T11:59:32;95091.53;;;17.89;34.39
4617;BME280;2321;42.704;23.384;2024-03-23T12:01:59;95081.44;;;17.96;34.41
4617;BME280;2321;42.704;23.384;2024-03-23T12:04:27;95085.19;;;17.95;33.95
4617;BME280;2321;42.704;23.384;2024-03-23T12:07:09;95078.16;;;17.94;34.61
4617;BME280;2321;42.704;23.384;2024-03-23T12:09:35;95072.47;;;17.91;34.24
4617;BME280;2321;42.704;23.384;2024-03-23T12:12:07;95066.81;;;17.92;34.39
4617;BME280;2321;42.704;23.384;2024-03-23T12:14:35;95065.41;;;18.07;33.56
4617;BME280;2321;42.704;23.384;2024-03-23T12:17:11;95054.94;;;18.11;33.83
4617;BME280;2321;42.704;23.384;2024-03-23T12:19:38;95053.44;;;18.20;33.53
4617;BME280;2321;42.704;23.384;2024-03-23T12:22:05;95046.28;;;18.26;33.29
4617;BME280;2321;42.704;23.384;2024-03-23T12:24:32;95045.47;;;18.25;33.45
4617;BME280;2321;42.704;23.384;2024-03-23T12:27:01;95049.28;;;18.29;33.01
4617;BME280;2321;42.704;23.384;2024-03-23T12:29:29;95033.63;;;18.26;33.03
4617;BME280;2321;42.704;23.384;2024-03-23T12:31:59;95040.56;;;18.45;32.96
4617;BME280;2321;42.704;23.384;2024-03-23T12:34:25;95040.72;;;18.55;31.69
4617;BME280;2321;42.704;23.384;2024-03-23T12:36:52;95035.88;;;18.57;31.52
4617;BME280;2321;42.704;23.384;2024-03-23T12:39:18;95026.97;;;18.57;31.62
4617;BME280;2321;42.704;23.384;2024-03-23T12:41:47;95021.03;;;18.55;31.88
4617;BME280;2321;42.704;23.384;2024-03-23T12:44:13;95017.75;;;18.53;32.65
4617;BME280;2321;42.704;23.384;2024-03-23T12:46:40;95015.69;;;18.60;31.73
4617;BME280;2321;42.704;23.384;2024-03-23T12:49:08;95014.16;;;18.69;31.87
4617;BME280;2321;42.704;23.384;2024-03-23T12:51:35;95007.50;;;18.77;31.92
4617;BME280;2321;42.704;23.384;2024-03-23T12:54:01;95001.50;;;18.98;32.70
4617;BME280;2321;42.704;23.384;2024-03-23T12:56:28;94994.84;;;19.11;31.86
4617;BME280;2321;42.704;23.384;2024-03-23T12:58:55;94987.31;;;19.13;31.77
4617;BME280;2321;42.704;23.384;2024-03-23T13:01:22;94989.75;;;19.14;30.10
4617;BME280;2321;42.704;23.384;2024-03-23T13:03:49;94987.06;;;19.14;30.84
4617;BME280;2321;42.704;23.384;2024-03-23T13:06:18;94988.19;;;19.19;31.12
4617;BME280;2321;42.704;23.384;2024-03-23T13:08:45;94982.03;;;19.23;31.14
4617;BME280;2321;42.704;23.384;2024-03-23T13:11:12;94978.59;;;19.33;30.58
4617;BME280;2321;42.704;23.384;2024-03-23T13:13:39;94978.56;;;19.28;30.71
4617;BME280;2321;42.704;23.384;2024-03-23T13:16:07;94973.69;;;19.25;30.12
4617;BME280;2321;42.704;23.384;2024-03-23T13:18:33;94976.56;;;19.18;30.53
4617;BME280;2321;42.704;23.384;2024-03-23T13:21:00;94963.91;;;19.19;29.53
4617;BME280;2321;42.704;23.384;2024-03-23T13:23:28;94961.19;;;19.19;29.70
4617;BME280;2321;42.704;23.384;2024-03-23T13:25:56;94958.81;;;19.22;29.71
4617;BME280;2321;42.704;23.384;2024-03-23T13:28:22;94947.94;;;19.17;29.99
4617;BME280;2321;42.704;23.384;2024-03-23T13:30:50;94955.38;;;19.32;30.28
4617;BME280;2321;42.704;23.384;2024-03-23T13:33:16;94953.56;;;19.43;31.37
4617;BME280;2321;42.704;23.384;2024-03-23T13:35:49;94942.03;;;19.53;31.29
4617;BME280;2321;42.704;23.384;2024-03-23T13:38:15;94939.06;;;19.60;31.49
4617;BME280;2321;42.704;23.384;2024-03-23T13:40:54;94938.63;;;19.74;31.22
4617;BME280;2321;42.704;23.384;2024-03-23T13:43:20;94911.63;;;19.74;32.28
4617;BME280;2321;42.704;23.384;2024-03-23T13:45:47;94928.19;;;19.93;31.58
4617;BME280;2321;42.704;23.384;2024-03-23T13:48:14;94939.25;;;19.97;30.82
4617;BME280;2321;42.704;23.384;2024-03-23T13:50:42;94919.56;;;19.96;30.53
4617;BME280;2321;42.704;23.384;2024-03-23T13:53:08;94927.44;;;20.08;29.57
4617;BME280;2321;42.704;23.384;2024-03-23T13:55:35;94920.63;;;20.06;28.16
4617;BME280;2321;42.704;23.384;2024-03-23T13:58:03;94916.63;;;20.08;28.50
4617;BME280;2321;42.704;23.384;2024-03-23T14:00:30;94910.94;;;20.05;28.26
4617;BME280;2321;42.704;23.384;2024-03-23T14:02:58;94912.00;;;20.03;28.40
4617;BME280;2321;42.704;23.384;2024-03-23T14:05:25;94910.34;;;20.02;28.85
4617;BME280;2321;42.704;23.384;2024-03-23T14:07:51;94914.72;;;20.09;29.00
4617;BME280;2321;42.704;23.384;2024-03-23T14:10:18;94906.13;;;20.17;28.06
4617;BME280;2321;42.704;23.384;2024-03-23T14:12:44;94903.16;;;20.19;26.79